createdAt,value
2023-04-07T00:01:54.539Z,49.74
2023-04-07T00:04:26.891Z,49.09
2023-04-07T00:06:59.793Z,49.46
2023-04-07T00:09:31.979Z,48.88
2023-04-07T00:12:04.283Z,48.99
2023-04-07T00:14:36.146Z,48.45
2023-04-07T00:17:08.011Z,50.61
2023-04-07T00:19:39.698Z,49.02
2023-04-07T00:22:11.574Z,48.85
2023-04-07T00:24:43.234Z,48.77
2023-04-07T00:27:15.055Z,52.72
2023-04-07T00:29:47.025Z,53.98
2023-04-07T00:32:18.912Z,54.76
2023-04-07T00:34:50.572Z,52.17
2023-04-07T00:37:22.419Z,51.99
2023-04-07T00:39:55.986Z,50.07
2023-04-07T00:42:28.038Z,49.97
2023-04-07T00:44:59.902Z,51.32
2023-04-07T00:47:31.985Z,48.17
2023-04-07T00:50:07.363Z,49.45
2023-04-07T00:52:40.257Z,52.51
2023-04-07T00:55:12.278Z,53.36
2023-04-07T00:57:45.044Z,52.86
2023-04-07T01:00:16.989Z,52.60
2023-04-07T01:02:59.213Z,52.27
2023-04-07T01:05:55.770Z,52.53
2023-04-07T01:08:38.517Z,51.28
2023-04-07T01:11:48.574Z,51.71
2023-04-07T01:14:25.436Z,52.17
2023-04-07T01:17:12.233Z,52.43
2023-04-07T01:19:50.573Z,52.45
2023-04-07T01:22:28.687Z,52.84
2023-04-07T01:25:03.377Z,53.43
2023-04-07T01:27:42.662Z,51.70
2023-04-07T01:30:17.779Z,52.63
2023-04-07T01:32:52.999Z,52.08
2023-04-07T01:35:30.789Z,52.95
2023-04-07T01:38:05.092Z,52.62
2023-04-07T01:40:40.450Z,53.12
2023-04-07T01:43:14.962Z,51.57
2023-04-07T01:45:47.648Z,53.21
2023-04-07T01:48:21.182Z,53.30
2023-04-07T01:50:54.681Z,53.16
2023-04-07T01:53:27.735Z,53.31
2023-04-07T01:55:59.657Z,52.69
2023-04-07T01:58:32.019Z,53.04
2023-04-07T02:01:03.981Z,51.74
2023-04-07T02:03:56.593Z,52.41
2023-04-07T02:06:35.421Z,52.22
2023-04-07T02:09:13.083Z,53.42
2023-04-07T02:11:45.977Z,52.42
2023-04-07T02:14:19.486Z,52.99
2023-04-07T02:17:19.148Z,53.69
2023-04-07T02:19:53.823Z,53.59
2023-04-07T02:22:29.000Z,53.76
2023-04-07T02:25:01.392Z,53.81
2023-04-07T02:27:33.391Z,53.84
2023-04-07T02:30:05.824Z,54.19
2023-04-07T02:32:37.938Z,54.20
2023-04-07T02:35:10.791Z,55.34
2023-04-07T02:37:43.645Z,54.51
2023-04-07T02:40:16.327Z,53.68
2023-04-07T02:42:48.111Z,52.93
2023-04-07T02:45:20.025Z,52.42
2023-04-07T02:47:51.829Z,53.26
2023-04-07T02:50:23.667Z,53.58
2023-04-07T02:52:55.415Z,53.05
2023-04-07T02:55:27.152Z,52.60
2023-04-07T02:57:58.905Z,52.03
2023-04-07T03:00:42.613Z,52.72
2023-04-07T03:03:26.839Z,53.65
2023-04-07T03:06:11.789Z,53.12
2023-04-07T03:08:53.336Z,53.04
2023-04-07T03:11:25.222Z,53.14
2023-04-07T03:13:57.462Z,52.60
2023-04-07T03:16:31.977Z,53.15
2023-04-07T03:19:12.030Z,55.07
2023-04-07T03:21:48.858Z,53.52
2023-04-07T03:24:20.622Z,51.02
2023-04-07T03:26:52.471Z,50.73
2023-04-07T03:29:35.194Z,51.46
2023-04-07T03:32:08.768Z,51.27
2023-04-07T03:34:40.409Z,50.21
2023-04-07T03:37:12.178Z,52.60
2023-04-07T03:39:43.975Z,51.41
2023-04-07T03:42:28.850Z,49.98
2023-04-07T03:45:06.623Z,49.06
2023-04-07T03:47:41.537Z,49.92
2023-04-07T03:50:13.504Z,51.60
2023-04-07T03:53:06.242Z,51.72
2023-04-07T03:55:39.077Z,51.95
2023-04-07T03:58:18.546Z,56.98
2023-04-07T04:00:52.683Z,53.36
2023-04-07T04:03:24.877Z,53.44
2023-04-07T04:06:15.495Z,54.89
2023-04-07T04:08:47.184Z,51.17
2023-04-07T04:11:19.535Z,53.81
2023-04-07T04:14:02.194Z,53.35
2023-04-07T04:16:34.583Z,51.99
2023-04-07T04:19:10.246Z,53.07
2023-04-07T04:21:42.297Z,52.95
2023-04-07T04:24:15.122Z,54.05
2023-04-07T04:26:49.102Z,55.36
2023-04-07T04:29:20.989Z,52.91
2023-04-07T04:31:53.453Z,52.98
2023-04-07T04:34:26.567Z,54.74
2023-04-07T04:37:00.215Z,56.36
2023-04-07T04:39:32.471Z,60.51
2023-04-07T04:42:05.868Z,61.10
2023-04-07T04:44:40.893Z,61.35
2023-04-07T04:47:13.076Z,62.83
2023-04-07T04:49:45.396Z,61.42
2023-04-07T04:52:17.623Z,61.79
2023-04-07T04:54:52.229Z,60.76
2023-04-07T04:57:26.020Z,61.36
2023-04-07T04:59:57.915Z,59.95
2023-04-07T05:02:30.150Z,60.08
2023-04-07T05:05:02.368Z,63.16
2023-04-07T05:07:34.826Z,59.95
2023-04-07T05:10:08.216Z,60.35
2023-04-07T05:12:42.786Z,59.60
2023-04-07T05:15:15.137Z,59.24
2023-04-07T05:17:48.533Z,59.75
2023-04-07T05:22:53.989Z,64.38
2023-04-07T05:25:30.831Z,63.93
2023-04-07T05:28:06.050Z,64.37
2023-04-07T05:30:37.846Z,65.27
2023-04-07T05:33:10.202Z,65.49
2023-04-07T05:35:52.592Z,67.26
2023-04-07T05:38:24.291Z,68.36
2023-04-07T05:40:59.444Z,67.12
2023-04-07T05:43:36.893Z,65.86
2023-04-07T05:46:09.842Z,65.66
2023-04-07T05:48:50.720Z,65.07
2023-04-07T05:51:23.697Z,62.92
2023-04-07T05:54:00.887Z,62.34
2023-04-07T05:56:32.725Z,62.08
2023-04-07T05:59:04.889Z,61.82
2023-04-07T06:01:36.630Z,62.13
2023-04-07T06:04:09.076Z,62.34
2023-04-07T06:06:40.797Z,62.87
2023-04-07T06:09:12.642Z,64.30
2023-04-07T06:11:44.552Z,65.54
2023-04-07T06:14:18.094Z,67.37
2023-04-07T06:16:49.931Z,67.57
2023-04-07T06:19:22.458Z,66.77
2023-04-07T06:21:54.212Z,67.50
2023-04-07T06:24:25.923Z,65.91
2023-04-07T06:26:57.707Z,65.60
2023-04-07T06:29:30.582Z,64.42
2023-04-07T06:32:02.729Z,61.95
2023-04-07T06:34:34.471Z,61.34
2023-04-07T06:37:06.212Z,62.54
2023-04-07T06:39:38.641Z,62.52
2023-04-07T06:42:10.452Z,64.67
2023-04-07T06:44:53.320Z,64.68
2023-04-07T06:47:24.999Z,63.46
2023-04-07T06:49:56.851Z,62.92
2023-04-07T06:52:29.374Z,63.27
2023-04-07T06:55:01.956Z,63.55
2023-04-07T06:57:33.772Z,64.52
2023-04-07T07:00:06.380Z,64.81
2023-04-07T07:02:38.609Z,65.73
2023-04-07T07:05:10.848Z,66.58
2023-04-07T07:07:42.523Z,65.79
2023-04-07T07:10:14.183Z,66.05
2023-04-07T07:12:46.132Z,66.32
2023-04-07T07:15:18.105Z,65.33
2023-04-07T07:17:49.858Z,65.65
2023-04-07T07:20:22.634Z,66.50
2023-04-07T07:22:55.257Z,65.31
2023-04-07T07:25:27.627Z,63.55
2023-04-07T07:27:59.666Z,63.19
2023-04-07T07:30:31.572Z,62.57
2023-04-07T07:33:03.924Z,61.98
2023-04-07T07:35:35.826Z,63.11
2023-04-07T07:38:08.984Z,63.09
2023-04-07T07:40:42.294Z,65.49
2023-04-07T07:43:14.248Z,67.16
2023-04-07T07:45:46.126Z,68.56
2023-04-07T07:48:18.273Z,69.98
2023-04-07T07:50:52.197Z,69.78
2023-04-07T07:53:24.206Z,71.03
2023-04-07T07:55:55.933Z,71.18
2023-04-07T07:58:27.869Z,72.33
2023-04-07T08:02:02.385Z,72.64
2023-04-07T08:04:35.749Z,70.98
2023-04-07T08:07:07.434Z,70.89
2023-04-07T08:09:39.207Z,71.18
2023-04-07T08:12:10.930Z,71.67
2023-04-07T08:14:42.673Z,69.68
2023-04-07T08:17:14.237Z,68.46
2023-04-07T08:19:46.144Z,67.07
2023-04-07T08:22:17.819Z,68.67
2023-04-07T08:24:49.542Z,67.54
2023-04-07T08:27:21.323Z,68.47
2023-04-07T08:30:04.530Z,69.34
2023-04-07T08:32:39.058Z,68.73
2023-04-07T08:35:11.796Z,69.37
2023-04-07T08:37:43.442Z,69.70
2023-04-07T08:40:15.239Z,69.64
2023-04-07T08:42:48.713Z,68.37
2023-04-07T08:45:21.958Z,66.85
2023-04-07T08:47:56.195Z,67.89
2023-04-07T08:50:28.826Z,66.41
2023-04-07T08:53:09.074Z,65.61
2023-04-07T08:55:41.880Z,65.75
2023-04-07T08:58:15.830Z,67.02
2023-04-07T09:00:47.900Z,65.40
2023-04-07T09:03:23.044Z,66.05
2023-04-07T09:05:55.226Z,66.09
2023-04-07T09:08:28.201Z,65.96
2023-04-07T09:11:00.011Z,66.93
2023-04-07T09:13:32.562Z,65.87
2023-04-07T09:16:04.559Z,66.03
2023-04-07T09:18:37.290Z,65.81
2023-04-07T09:21:09.121Z,66.42
2023-04-07T09:23:42.861Z,65.20
2023-04-07T09:26:18.375Z,64.04
2023-04-07T09:28:52.849Z,62.67
2023-04-07T09:31:45.324Z,61.92
2023-04-07T09:34:26.345Z,64.39
2023-04-07T09:36:58.754Z,65.15
2023-04-07T09:39:33.215Z,64.71
2023-04-07T09:42:07.261Z,65.17
2023-04-07T09:44:40.325Z,64.83
2023-04-07T09:47:12.123Z,64.86
2023-04-07T09:49:53.966Z,63.60
2023-04-07T09:52:49.493Z,63.59
2023-04-07T09:55:23.333Z,61.47
2023-04-07T09:57:55.530Z,62.65
2023-04-07T10:00:27.521Z,61.85
2023-04-07T10:03:00.651Z,60.59
2023-04-07T10:05:34.318Z,60.99
2023-04-07T10:08:06.892Z,61.41
2023-04-07T10:10:42.087Z,65.46
2023-04-07T10:13:14.970Z,66.95
2023-04-07T10:15:48.371Z,65.80
2023-04-07T10:18:26.618Z,65.66
2023-04-07T10:21:04.729Z,65.08
2023-04-07T10:24:08.636Z,64.74
2023-04-07T10:26:41.912Z,64.64
2023-04-07T10:29:15.206Z,64.42
2023-04-07T10:31:47.996Z,64.67
2023-04-07T10:34:52.407Z,63.55
2023-04-07T10:37:25.938Z,63.98
2023-04-07T10:40:19.583Z,62.42
2023-04-07T10:42:52.000Z,61.73
2023-04-07T10:45:48.908Z,61.70
2023-04-07T10:48:22.035Z,61.47
2023-04-07T10:51:22.989Z,60.77
2023-04-07T10:54:20.417Z,61.19
2023-04-07T10:57:05.102Z,57.47
2023-04-07T11:00:01.218Z,57.66
2023-04-07T11:02:33.558Z,59.92
2023-04-07T11:05:06.605Z,61.52
2023-04-07T11:07:47.496Z,60.63
2023-04-07T11:10:19.418Z,56.47
2023-04-07T11:13:08.252Z,59.67
2023-04-07T11:15:40.912Z,57.17
2023-04-07T11:18:19.260Z,56.59
2023-04-07T11:20:52.870Z,56.64
2023-04-07T11:23:25.667Z,53.67
2023-04-07T11:26:02.024Z,59.07
2023-04-07T11:28:34.601Z,57.78
2023-04-07T11:31:06.956Z,57.84
2023-04-07T11:33:40.300Z,57.90
2023-04-07T11:36:12.422Z,57.81
2023-04-07T11:38:46.661Z,59.21
2023-04-07T11:41:18.781Z,60.63
2023-04-07T11:44:07.716Z,59.49
2023-04-07T11:47:00.589Z,58.61
2023-04-07T11:49:32.929Z,59.98
2023-04-07T11:52:06.645Z,61.59
2023-04-07T11:54:43.132Z,61.43
2023-04-07T11:57:23.337Z,61.77
2023-04-07T12:00:09.309Z,61.00
2023-04-07T12:02:42.321Z,61.82
2023-04-07T12:05:14.369Z,60.16
2023-04-07T12:07:54.570Z,61.99
2023-04-07T12:10:26.683Z,59.21
2023-04-07T12:12:59.519Z,59.71
2023-04-07T12:15:31.728Z,58.02
2023-04-07T12:18:03.962Z,58.14
2023-04-07T12:20:37.512Z,56.36
2023-04-07T12:23:09.974Z,59.12
2023-04-07T12:25:42.300Z,57.93
2023-04-07T12:28:15.038Z,58.49
2023-04-07T12:30:46.885Z,58.50
2023-04-07T12:33:19.412Z,57.62
2023-04-07T12:35:54.571Z,56.18
2023-04-07T12:38:26.683Z,56.05
2023-04-07T12:40:58.606Z,55.71
2023-04-07T12:43:31.645Z,55.99
2023-04-07T12:46:03.433Z,55.41
2023-04-07T12:48:36.008Z,54.01
2023-04-07T12:51:07.961Z,53.53
2023-04-07T12:53:40.258Z,57.43
2023-04-07T12:56:12.697Z,57.84
2023-04-07T12:58:44.534Z,57.03
2023-04-07T13:01:17.125Z,56.77
2023-04-07T13:03:49.262Z,56.77
2023-04-07T13:06:21.705Z,55.98
2023-04-07T13:08:53.487Z,55.42
2023-04-07T13:11:25.602Z,55.34
2023-04-07T13:13:59.259Z,52.55
2023-04-07T13:16:33.157Z,55.02
2023-04-07T13:19:04.980Z,58.49
2023-04-07T13:24:13.245Z,60.96
2023-04-07T13:26:44.970Z,61.33
2023-04-07T13:29:17.589Z,62.16
2023-04-07T13:31:49.635Z,59.91
2023-04-07T13:34:21.274Z,59.52
2023-04-07T13:36:52.930Z,59.77
2023-04-07T13:39:24.582Z,62.50
2023-04-07T13:41:56.859Z,62.00
2023-04-07T13:44:29.156Z,62.85
2023-04-07T13:47:00.986Z,62.36
2023-04-07T13:49:32.811Z,61.79
2023-04-07T13:52:04.489Z,61.56
2023-04-07T13:54:36.480Z,59.62
2023-04-07T13:57:08.157Z,60.85
2023-04-07T13:59:40.006Z,59.61
2023-04-07T14:02:11.701Z,57.46
2023-04-07T14:04:43.694Z,58.39
2023-04-07T14:07:15.354Z,60.75
2023-04-07T14:09:47.346Z,60.02
2023-04-07T14:12:19.397Z,58.18
2023-04-07T14:14:51.190Z,58.33
2023-04-07T14:17:22.972Z,57.95
2023-04-07T14:19:54.634Z,59.53
2023-04-07T14:22:26.493Z,57.49
2023-04-07T14:24:58.164Z,58.40
2023-04-07T14:27:31.037Z,57.49
2023-04-07T14:30:03.650Z,53.35
2023-04-07T14:32:35.956Z,51.86
2023-04-07T14:35:08.216Z,52.57
2023-04-07T14:37:40.097Z,55.22
2023-04-07T14:40:12.131Z,53.75
2023-04-07T14:42:43.821Z,53.72
2023-04-07T14:45:15.622Z,53.67
2023-04-07T14:47:47.443Z,56.04
2023-04-07T14:50:19.180Z,54.79
2023-04-07T14:52:51.019Z,53.38
2023-04-07T14:55:22.885Z,53.65
2023-04-07T14:57:54.912Z,52.04
2023-04-07T15:00:26.730Z,51.91
2023-04-07T15:02:58.843Z,50.24
2023-04-07T15:05:30.981Z,44.33
2023-04-07T15:08:03.090Z,47.55
2023-04-07T15:10:37.943Z,49.15
2023-04-07T15:13:10.227Z,49.13
2023-04-07T15:15:42.007Z,47.59
2023-04-07T15:18:13.856Z,47.15
2023-04-07T15:20:45.626Z,41.53
2023-04-07T15:23:17.653Z,46.80
2023-04-07T15:25:55.658Z,49.77
2023-04-07T15:28:27.579Z,50.24
2023-04-07T15:31:00.682Z,44.66
2023-04-07T15:33:32.934Z,43.07
2023-04-07T15:36:06.025Z,42.41
2023-04-07T15:38:38.938Z,39.48
2023-04-07T15:41:15.828Z,38.20
2023-04-07T15:43:47.898Z,43.32
2023-04-07T15:46:20.112Z,53.66
2023-04-07T15:48:52.381Z,51.78
2023-04-07T15:51:25.108Z,46.50
2023-04-07T15:53:57.445Z,49.47
2023-04-07T15:56:29.363Z,52.92
2023-04-07T15:59:01.371Z,53.44
2023-04-07T16:01:34.048Z,53.89
2023-04-07T16:04:06.589Z,52.76
2023-04-07T16:06:39.092Z,51.21
2023-04-07T16:09:11.258Z,47.27
2023-04-07T16:11:43.086Z,45.29
2023-04-07T16:14:15.176Z,47.78
2023-04-07T16:16:46.939Z,50.21
2023-04-07T16:19:18.808Z,50.39
2023-04-07T16:21:50.506Z,52.27
2023-04-07T16:24:22.321Z,52.38
2023-04-07T16:26:54.009Z,52.89
2023-04-07T16:29:25.745Z,51.37
2023-04-07T16:31:57.498Z,52.08
2023-04-07T16:34:30.660Z,52.56
2023-04-07T16:37:02.322Z,52.06
2023-04-07T16:39:34.252Z,53.15
2023-04-07T16:42:05.929Z,52.01
2023-04-07T16:44:37.760Z,49.87
2023-04-07T16:47:09.419Z,49.02
2023-04-07T16:49:41.088Z,49.26
2023-04-07T16:52:12.917Z,48.71
2023-04-07T16:54:44.754Z,48.47
2023-04-07T16:57:16.838Z,50.03
2023-04-07T16:59:48.579Z,52.20
2023-04-07T17:02:20.791Z,54.03
2023-04-07T17:04:52.748Z,55.15
2023-04-07T17:07:24.465Z,58.84
2023-04-07T17:09:56.089Z,58.77
2023-04-07T17:12:28.251Z,60.99
2023-04-07T17:14:59.936Z,57.91
2023-04-07T17:17:31.663Z,58.18
2023-04-07T17:20:03.611Z,57.94
2023-04-07T17:22:35.594Z,62.24
2023-04-07T17:25:07.819Z,61.91
2023-04-07T17:27:39.743Z,63.51
2023-04-07T17:30:11.935Z,62.42
2023-04-07T17:32:43.803Z,61.82
2023-04-07T17:35:15.598Z,63.49
2023-04-07T17:37:47.410Z,65.78
2023-04-07T17:40:19.294Z,67.00
2023-04-07T17:42:52.094Z,65.00
2023-04-07T17:45:24.726Z,65.43
2023-04-07T17:47:56.592Z,68.53
2023-04-07T17:50:28.498Z,68.17
2023-04-07T17:53:00.381Z,63.66
2023-04-07T17:55:32.356Z,64.52
2023-04-07T17:58:04.082Z,64.27
2023-04-07T18:00:35.963Z,62.55
2023-04-07T18:03:09.734Z,63.41
2023-04-07T18:05:47.516Z,62.92
2023-04-07T18:08:20.028Z,62.60
2023-04-07T18:10:53.049Z,63.50
2023-04-07T18:13:24.975Z,64.68
2023-04-07T18:15:57.035Z,64.14
2023-04-07T18:18:29.431Z,63.07
2023-04-07T18:21:07.913Z,63.92
2023-04-07T18:23:42.156Z,62.54
2023-04-07T18:26:14.410Z,63.16
2023-04-07T18:28:46.124Z,63.21
2023-04-07T18:31:19.032Z,61.41
2023-04-07T18:33:51.723Z,62.52
2023-04-07T18:36:24.369Z,62.51
2023-04-07T18:38:56.539Z,61.93
2023-04-07T18:41:29.122Z,62.21
2023-04-07T18:44:02.513Z,62.12
2023-04-07T18:46:34.798Z,60.69
2023-04-07T18:49:07.980Z,60.02
2023-04-07T18:51:43.679Z,58.89
2023-04-07T18:54:16.443Z,59.22
2023-04-07T18:56:48.154Z,59.30
2023-04-07T18:59:19.827Z,60.69
2023-04-07T19:01:52.326Z,60.79
2023-04-07T19:04:24.166Z,60.57
2023-04-07T19:06:56.083Z,60.75
2023-04-07T19:09:28.058Z,61.29
2023-04-07T19:12:00.184Z,62.95
2023-04-07T19:14:32.350Z,66.12
2023-04-07T19:17:04.179Z,66.67
2023-04-07T19:19:35.952Z,66.33
2023-04-07T19:22:07.680Z,67.12
2023-04-07T19:24:39.473Z,64.58
2023-04-07T19:27:11.317Z,63.41
2023-04-07T19:29:43.026Z,63.31
2023-04-07T19:32:14.946Z,63.56
2023-04-07T19:34:46.646Z,63.87
2023-04-07T19:37:18.408Z,65.12
2023-04-07T19:40:01.708Z,64.11
2023-04-07T19:42:35.945Z,65.72
2023-04-07T19:45:09.105Z,64.36
2023-04-07T19:47:41.683Z,64.09
2023-04-07T19:50:13.590Z,64.55
2023-04-07T19:52:45.566Z,64.28
2023-04-07T19:55:18.091Z,64.83
2023-04-07T19:57:50.249Z,65.32
2023-04-07T20:00:22.214Z,65.84
2023-04-07T20:02:54.404Z,64.71
2023-04-07T20:05:26.219Z,64.48
2023-04-07T20:07:58.936Z,64.80
2023-04-07T20:10:31.522Z,64.80
2023-04-07T20:13:05.189Z,64.36
2023-04-07T20:15:40.821Z,63.61
2023-04-07T20:18:13.063Z,63.61
2023-04-07T20:20:45.911Z,64.62
2023-04-07T20:23:18.169Z,64.18
2023-04-07T20:25:51.011Z,65.54
2023-04-07T20:28:25.106Z,64.63
2023-04-07T20:30:57.060Z,64.17
2023-04-07T20:33:29.524Z,64.20
2023-04-07T20:36:01.408Z,65.80
2023-04-07T20:38:33.313Z,64.01
2023-04-07T20:41:05.071Z,63.41
2023-04-07T20:43:37.094Z,63.67
2023-04-07T20:46:09.111Z,64.75
2023-04-07T20:48:40.875Z,65.07
2023-04-07T20:51:13.178Z,66.47
2023-04-07T20:53:44.950Z,65.62
2023-04-07T20:56:17.088Z,66.49
2023-04-07T20:58:48.979Z,61.30
2023-04-07T21:01:21.697Z,61.92
2023-04-07T21:03:53.999Z,62.15
2023-04-07T21:06:26.095Z,64.73
2023-04-07T21:08:58.011Z,64.07
2023-04-07T21:11:36.533Z,64.69
2023-04-07T21:14:08.474Z,63.53
2023-04-07T21:16:40.573Z,63.05
2023-04-07T21:19:17.566Z,63.26
2023-04-07T21:21:53.553Z,64.00
2023-04-07T21:24:25.552Z,64.77
2023-04-07T21:26:57.864Z,63.89
2023-04-07T21:29:30.367Z,61.41
2023-04-07T21:32:02.502Z,62.59
2023-04-07T21:34:34.577Z,61.50
2023-04-07T21:37:07.665Z,63.18
2023-04-07T21:39:39.381Z,62.96
2023-04-07T21:42:11.034Z,62.62
2023-04-07T21:44:42.733Z,62.63
2023-04-07T21:47:14.537Z,62.64
2023-04-07T21:49:46.362Z,61.83
2023-04-07T21:52:18.090Z,62.24
2023-04-07T21:54:49.699Z,62.43
2023-04-07T21:57:21.386Z,61.55
2023-04-07T21:59:53.095Z,61.93
2023-04-07T22:02:24.940Z,61.92
2023-04-07T22:04:56.815Z,62.49
2023-04-07T22:07:28.846Z,62.53
2023-04-07T22:10:00.595Z,62.47
2023-04-07T22:12:32.393Z,63.28
2023-04-07T22:15:04.517Z,62.53
2023-04-07T22:17:36.752Z,63.37
2023-04-07T22:20:10.865Z,63.62
2023-04-07T22:22:42.584Z,63.14
2023-04-07T22:25:14.295Z,62.21
2023-04-07T22:27:46.038Z,61.56
2023-04-07T22:30:18.715Z,61.49
2023-04-07T22:32:50.924Z,61.65
2023-04-07T22:35:22.639Z,63.06
2023-04-07T22:37:54.425Z,64.43
2023-04-07T22:40:26.204Z,64.76
2023-04-07T22:42:58.801Z,64.85
2023-04-07T22:45:30.625Z,65.19
2023-04-07T22:48:02.717Z,65.94
2023-04-07T22:50:37.692Z,66.47
2023-04-07T22:53:09.678Z,67.87
2023-04-07T22:55:41.550Z,68.09
2023-04-07T22:58:13.521Z,68.20
2023-04-07T23:00:45.369Z,66.87
2023-04-07T23:03:17.862Z,66.02
2023-04-07T23:05:49.655Z,65.88
2023-04-07T23:08:21.652Z,65.63
2023-04-07T23:10:53.560Z,65.61
2023-04-07T23:13:26.421Z,66.09
2023-04-07T23:15:58.408Z,67.20
2023-04-07T23:18:31.754Z,67.60
2023-04-07T23:21:03.909Z,67.57
2023-04-07T23:23:36.232Z,67.85
2023-04-07T23:26:08.173Z,68.83
2023-04-07T23:28:41.191Z,68.44
2023-04-07T23:31:13.651Z,68.57
2023-04-07T23:33:45.498Z,68.45
2023-04-07T23:36:17.631Z,69.33
2023-04-07T23:38:50.751Z,68.09
2023-04-07T23:41:23.275Z,67.46
2023-04-07T23:43:55.181Z,68.06
2023-04-07T23:46:28.140Z,67.86
2023-04-07T23:49:00.818Z,67.60
2023-04-07T23:51:33.403Z,67.41
2023-04-07T23:54:05.049Z,66.26
2023-04-07T23:56:37.193Z,65.36
2023-04-07T23:59:09.156Z,64.99
